Time;durP1;ratioP1;P1;durP2;ratioP2;P2;SDS_P1;SDS_P2;PMS_P1;PMS_P2;Temp;Humidity;BMP_temperature;BMP_pressure;BME280_temperature;BME280_humidity;BME280_pressure;Samples;Min_cycle;Max_cycle;Signal;HPM_P1;HPM_P2
2022/12/26 00:00:55;;;;;;;3.55;1.60;;;10.90;99.90;;;;;;4943853;28;20582;-72
2022/12/26 00:03:21;;;;;;;3.78;2.33;;;10.90;99.90;;;;;;4936184;29;20032;-72
2022/12/26 00:05:47;;;;;;;3.75;1.80;;;11.00;99.90;;;;;;4932221;29;20031;-71
2022/12/26 00:08:12;;;;;;;3.72;1.90;;;11.00;99.90;;;;;;4938400;29;20258;-71
2022/12/26 00:10:38;;;;;;;2.90;1.30;;;11.10;99.90;;;;;;4945382;28;20034;-71
2022/12/26 00:13:04;;;;;;;3.90;1.90;;;11.10;99.90;;;;;;4950062;29;20035;-71
2022/12/26 00:15:30;;;;;;;3.03;1.77;;;11.20;99.90;;;;;;4944933;29;20101;-70
2022/12/26 00:17:55;;;;;;;6.15;1.50;;;11.20;99.90;;;;;;4950092;28;20443;-70
2022/12/26 00:20:21;;;;;;;2.45;1.40;;;11.30;99.90;;;;;;4959373;28;20479;-71
2022/12/26 00:22:47;;;;;;;6.18;1.80;;;11.20;99.90;;;;;;4948635;29;20054;-71
2022/12/26 00:25:13;;;;;;;4.30;2.20;;;11.30;99.90;;;;;;4941716;28;20063;-71
2022/12/26 00:27:38;;;;;;;9.52;1.90;;;11.30;99.90;;;;;;4940984;28;20058;-71
2022/12/26 00:30:05;;;;;;;3.00;1.88;;;11.30;99.90;;;;;;4937431;29;20046;-71
2022/12/26 00:32:30;;;;;;;2.60;1.45;;;11.30;99.90;;;;;;4943483;29;20031;-71
2022/12/26 00:34:56;;;;;;;2.45;1.40;;;11.20;99.90;;;;;;4943590;28;20111;-70
2022/12/26 00:37:22;;;;;;;3.28;1.30;;;11.20;99.90;;;;;;4942234;29;20746;-72
2022/12/26 00:39:48;;;;;;;5.47;1.50;;;11.20;99.90;;;;;;4949193;28;20098;-71
2022/12/26 00:42:13;;;;;;;1.90;1.33;;;11.10;99.90;;;;;;4942004;29;20399;-72
2022/12/26 00:44:39;;;;;;;1.83;1.17;;;11.10;99.90;;;;;;4950804;28;20035;-71
2022/12/26 00:47:05;;;;;;;2.72;1.55;;;11.10;99.90;;;;;;4939933;29;20035;-72
2022/12/26 00:49:30;;;;;;;4.80;1.63;;;11.10;99.90;;;;;;4950073;29;20039;-71
2022/12/26 00:51:56;;;;;;;2.88;1.70;;;11.10;99.90;;;;;;4939859;28;20039;-71
2022/12/26 00:54:22;;;;;;;3.83;1.45;;;11.20;99.90;;;;;;4951399;29;20031;-72
2022/12/26 00:56:47;;;;;;;2.20;1.50;;;11.30;99.90;;;;;;4941429;28;20388;-72
2022/12/26 00:59:13;;;;;;;3.08;1.45;;;11.40;99.90;;;;;;4948549;29;20074;-72
2022/12/26 01:01:39;;;;;;;8.93;1.58;;;11.50;99.90;;;;;;4942371;28;20223;-72
2022/12/26 01:04:04;;;;;;;5.47;1.90;;;11.70;99.90;;;;;;4947214;29;20039;-72
2022/12/26 01:06:30;;;;;;;1.85;1.02;;;11.80;99.90;;;;;;4943825;28;20027;-72
2022/12/26 01:08:56;;;;;;;3.03;1.27;;;11.90;99.90;;;;;;4947307;29;20043;-71
2022/12/26 01:13:58;;;;;;;3.22;1.20;;;12.10;99.90;;;;;;4956000;28;20061;-71
2022/12/26 01:16:23;;;;;;;2.13;0.90;;;12.30;99.90;;;;;;4970546;28;20027;-70
2022/12/26 01:18:49;;;;;;;2.05;0.93;;;12.40;99.90;;;;;;4963381;28;20035;-71
2022/12/26 01:21:14;;;;;;;4.20;1.00;;;12.50;99.90;;;;;;4973090;28;20122;-71
2022/12/26 01:23:40;;;;;;;1.48;0.90;;;12.50;99.90;;;;;;4946999;28;20027;-72
2022/12/26 01:26:06;;;;;;;7.90;1.58;;;12.60;99.90;;;;;;4952561;29;20118;-72
2022/12/26 01:28:32;;;;;;;1.30;0.80;;;12.60;99.90;;;;;;4947297;29;20063;-72
2022/12/26 01:31:03;;;;;;;2.53;1.20;;;12.60;99.90;;;;;;4933902;29;20072;-71
2022/12/26 01:33:29;;;;;;;1.70;1.00;;;12.60;99.90;;;;;;4947652;28;20038;-71
2022/12/26 01:35:55;;;;;;;2.15;1.30;;;12.50;99.90;;;;;;4949657;29;20067;-70
2022/12/26 01:38:21;;;;;;;2.85;1.35;;;12.30;99.90;;;;;;4948692;29;20431;-70
2022/12/26 01:40:48;;;;;;;2.45;1.30;;;12.20;99.90;;;;;;4948300;29;20045;-71
2022/12/26 01:43:15;;;;;;;2.38;1.30;;;12.10;99.90;;;;;;4948260;28;20038;-71
2022/12/26 01:45:48;;;;;;;2.53;1.48;;;12.00;99.90;;;;;;4948638;29;20121;-69
2022/12/26 01:48:32;;;;;;;5.07;1.90;;;11.90;99.90;;;;;;4948058;28;20165;-70
2022/12/26 01:51:04;;;;;;;3.35;1.10;;;11.90;99.90;;;;;;4949300;28;20118;-71
2022/12/26 01:53:49;;;;;;;4.95;1.73;;;12.00;99.90;;;;;;4941607;28;20039;-70
2022/12/26 01:56:22;;;;;;;2.25;1.17;;;11.90;99.90;;;;;;4953187;29;20660;-70
2022/12/26 01:58:54;;;;;;;3.63;1.58;;;11.90;99.90;;;;;;4943403;28;20126;-71
2022/12/26 02:01:24;;;;;;;5.35;1.77;;;11.90;99.90;;;;;;4952347;28;20043;-71
2022/12/26 02:06:36;;;;;;;3.72;1.27;;;11.80;99.90;;;;;;4922762;29;20041;-69
2022/12/26 02:09:02;;;;;;;3.30;1.45;;;11.70;99.90;;;;;;4923288;29;20035;-70
2022/12/26 02:11:37;;;;;;;2.30;1.20;;;11.80;99.90;;;;;;4919726;29;20035;-71
2022/12/26 02:14:06;;;;;;;3.60;1.77;;;11.70;99.90;;;;;;4922347;29;20031;-70
2022/12/26 02:16:33;;;;;;;4.32;1.27;;;11.70;99.90;;;;;;4919098;29;20039;-70
2022/12/26 02:18:59;;;;;;;3.03;1.80;;;11.60;99.90;;;;;;4918308;29;20060;-70
2022/12/26 02:21:30;;;;;;;1.95;1.02;;;11.60;99.90;;;;;;4928649;29;20110;-70
2022/12/26 02:24:29;;;;;;;3.53;1.70;;;11.60;99.90;;;;;;4930602;29;20126;-70
2022/12/26 02:27:34;;;;;;;4.43;1.58;;;11.70;99.90;;;;;;4937079;29;20035;-70
2022/12/26 02:30:35;;;;;;;1.75;1.33;;;11.70;99.90;;;;;;4923384;29;20119;-70
2022/12/26 02:33:50;;;;;;;3.28;1.23;;;11.70;99.90;;;;;;4925220;29;20491;-70
2022/12/26 02:37:01;;;;;;;5.03;1.58;;;11.70;99.90;;;;;;4933340;28;20126;-70
2022/12/26 02:40:08;;;;;;;4.97;1.50;;;11.70;99.90;;;;;;4930940;29;20028;-70
2022/12/26 02:43:09;;;;;;;2.35;1.00;;;11.60;99.90;;;;;;4937158;28;20154;-70
2022/12/26 03:13:09;;;;;;;2.33;1.35;;;11.50;99.90;;;;;;4919180;29;20035;-71
2022/12/26 03:13:50;;;;;;;4.63;1.98;;;11.40;99.90;;;;;;4918394;29;20032;-71
2022/12/26 03:19:07;;;;;;;3.92;1.40;;;11.40;99.90;;;;;;4921186;29;20026;-71
2022/12/26 03:21:44;;;;;;;6.22;1.30;;;11.30;99.90;;;;;;4919706;29;20043;-71
2022/12/26 03:24:14;;;;;;;1.63;1.05;;;11.30;99.90;;;;;;4920829;29;20175;-71
2022/12/26 03:26:49;;;;;;;10.65;1.52;;;11.30;99.90;;;;;;4934995;28;20040;-71
2022/12/26 03:32:11;;;;;;;1.50;0.90;;;11.30;99.90;;;;;;4937112;28;20035;-71
2022/12/26 03:34:42;;;;;;;2.22;1.35;;;11.10;99.90;;;;;;4933965;29;20079;-71
2022/12/26 03:37:33;;;;;;;4.38;1.75;;;10.90;99.90;;;;;;4940574;28;20134;-71
2022/12/26 04:19:54;;;;;;;5.03;1.30;;;11.20;99.90;;;;;;4945306;29;20039;-70
2022/12/26 04:45:20;;;;;;;1.83;1.20;;;11.90;99.90;;;;;;4947626;28;20039;-71
2022/12/26 04:50:30;;;;;;;2.47;0.93;;;12.00;99.90;;;;;;4942227;28;20051;-71
2022/12/26 04:52:59;;;;;;;3.58;1.48;;;12.00;99.90;;;;;;4951554;28;20054;-71
2022/12/26 04:55:31;;;;;;;6.28;2.05;;;11.90;99.90;;;;;;4925687;29;20032;-71
2022/12/26 04:57:58;;;;;;;2.60;1.10;;;11.90;99.90;;;;;;4952129;28;20451;-71
2022/12/26 05:00:26;;;;;;;5.63;1.10;;;11.90;99.90;;;;;;4941427;29;20045;-71
2022/12/26 05:11:30;;;;;;;3.38;1.70;;;12.00;99.90;;;;;;4940020;29;20042;-71
2022/12/26 05:13:57;;;;;;;3.33;1.25;;;12.10;99.90;;;;;;4942306;28;20519;-71
2022/12/26 05:30:23;;;;;;;8.93;1.70;;;12.10;99.90;;;;;;4942138;29;20069;-71
2022/12/26 05:35:34;;;;;;;1.75;0.90;;;12.20;99.90;;;;;;4943684;29;20035;-71
2022/12/26 05:38:01;;;;;;;5.72;1.10;;;12.20;99.90;;;;;;4951286;29;20113;-71
2022/12/26 05:40:27;;;;;;;2.67;1.20;;;12.30;99.90;;;;;;4941659;29;20036;-71
2022/12/26 05:42:53;;;;;;;4.03;0.85;;;12.30;99.90;;;;;;4952361;28;20518;-70
2022/12/26 05:45:18;;;;;;;3.17;0.63;;;12.30;99.90;;;;;;4941657;28;20036;-70
2022/12/26 05:47:44;;;;;;;1.27;0.70;;;12.40;99.90;;;;;;4950759;28;20521;-70
2022/12/26 05:50:10;;;;;;;8.70;1.20;;;12.50;99.90;;;;;;4940187;29;20103;-70
2022/12/26 05:52:35;;;;;;;2.75;1.38;;;12.40;99.90;;;;;;4950722;28;20030;-70
2022/12/26 05:55:01;;;;;;;1.20;0.85;;;12.50;99.90;;;;;;4941773;29;20403;-70
2022/12/26 05:57:27;;;;;;;3.63;1.67;;;12.50;99.90;;;;;;4950984;29;20087;-70
2022/12/26 05:59:53;;;;;;;3.17;1.42;;;12.60;99.90;;;;;;4943784;28;20035;-71
2022/12/26 06:02:18;;;;;;;1.83;1.10;;;12.50;99.90;;;;;;4949844;28;20031;-71
2022/12/26 06:04:44;;;;;;;1.05;0.70;;;12.50;99.90;;;;;;4947560;29;20044;-72
2022/12/26 06:07:10;;;;;;;2.55;1.45;;;12.50;99.90;;;;;;4952241;29;20033;-70
2022/12/26 06:09:36;;;;;;;1.55;0.88;;;12.50;99.90;;;;;;4949485;29;20032;-70
2022/12/26 06:12:01;;;;;;;1.75;0.80;;;12.60;99.90;;;;;;4965418;28;20046;-71
2022/12/26 06:14:27;;;;;;;2.35;0.98;;;12.60;99.90;;;;;;4949328;28;20539;-71
2022/12/26 06:16:53;;;;;;;1.15;0.55;;;12.60;99.90;;;;;;4949806;29;20035;-71
2022/12/26 06:19:19;;;;;;;2.45;1.02;;;12.60;99.90;;;;;;4950131;29;20494;-70
2022/12/26 06:21:45;;;;;;;1.83;0.90;;;12.60;99.90;;;;;;4948335;28;20035;-71
2022/12/26 06:24:12;;;;;;;1.75;1.02;;;12.50;99.90;;;;;;4952546;28;20126;-70
2022/12/26 06:26:39;;;;;;;1.65;0.98;;;12.50;99.90;;;;;;4947450;29;20091;-70
2022/12/26 06:29:06;;;;;;;1.63;0.88;;;12.50;99.90;;;;;;4952623;29;20038;-71
2022/12/26 06:31:31;;;;;;;1.92;1.02;;;12.50;99.90;;;;;;4939304;28;20119;-70
2022/12/26 06:34:00;;;;;;;1.30;0.82;;;12.50;99.90;;;;;;4932470;29;20112;-70
2022/12/26 06:36:27;;;;;;;1.33;0.95;;;12.50;99.90;;;;;;4946894;28;20082;-72
2022/12/26 06:38:54;;;;;;;2.22;1.35;;;12.50;99.90;;;;;;4946810;29;20411;-71
2022/12/26 06:41:22;;;;;;;6.03;0.90;;;12.50;99.90;;;;;;4940715;29;20087;-70
2022/12/26 06:43:48;;;;;;;2.33;1.50;;;12.60;99.90;;;;;;4941629;29;20047;-72
2022/12/26 06:46:18;;;;;;;7.95;1.80;;;12.60;99.90;;;;;;4950009;29;20035;-72
2022/12/26 06:48:44;;;;;;;3.15;1.10;;;12.60;99.90;;;;;;4937082;29;20101;-72
2022/12/26 06:51:25;;;;;;;1.85;1.15;;;12.50;99.90;;;;;;4928901;29;20517;-70
2022/12/26 06:53:52;;;;;;;;;;;12.40;99.90;;;;;;4950973;29;20407;-72
2022/12/26 06:56:21;;;;;;;1.58;0.82;;;12.40;99.90;;;;;;4941923;29;19917;-70
2022/12/26 06:58:51;;;;;;;2.92;1.45;;;12.30;99.90;;;;;;4944674;29;20047;-72
2022/12/26 07:01:18;;;;;;;1.75;1.05;;;12.20;99.90;;;;;;4944610;29;20035;-71
2022/12/26 07:03:45;;;;;;;5.22;1.30;;;12.10;99.90;;;;;;4938559;29;20402;-71
2022/12/26 07:06:30;;;;;;;2.60;1.30;;;12.00;99.90;;;;;;4940762;29;20046;-71
2022/12/26 07:09:00;;;;;;;2.72;1.05;;;12.00;99.90;;;;;;4936596;29;20506;-72
2022/12/26 07:11:30;;;;;;;3.15;1.20;;;11.90;99.90;;;;;;4949009;29;20413;-71
2022/12/26 07:13:56;;;;;;;2.90;1.45;;;11.90;99.90;;;;;;4940851;28;20063;-71
2022/12/26 07:16:22;;;;;;;4.63;1.63;;;11.90;99.90;;;;;;4944489;29;20101;-71
2022/12/26 07:18:52;;;;;;;2.60;1.30;;;11.80;99.90;;;;;;4950399;29;20032;-71
2022/12/26 07:21:19;;;;;;;3.33;1.50;;;11.80;99.90;;;;;;4944333;29;20058;-73
2022/12/26 07:23:44;;;;;;;2.35;1.20;;;11.80;99.90;;;;;;4942156;28;20031;-72
2022/12/26 07:26:10;;;;;;;1.05;0.93;;;11.90;99.90;;;;;;4951864;29;20545;-73
2022/12/26 07:28:36;;;;;;;2.38;1.20;;;11.80;99.90;;;;;;4947459;28;20024;-73
2022/12/26 07:31:02;;;;;;;1.27;0.85;;;11.80;99.90;;;;;;4935420;29;20038;-72
2022/12/26 07:33:29;;;;;;;5.72;2.72;;;11.80;99.90;;;;;;4936265;29;20043;-72
2022/12/26 07:35:59;;;;;;;2.83;1.30;;;11.80;99.90;;;;;;4935700;29;20466;-72
2022/12/26 07:38:25;;;;;;;4.82;1.40;;;11.90;99.90;;;;;;4935227;29;20031;-72
2022/12/26 07:40:53;;;;;;;2.03;1.10;;;11.90;99.90;;;;;;4935771;29;20039;-72
2022/12/26 07:43:18;;;;;;;2.00;1.13;;;11.90;99.90;;;;;;4941623;28;20035;-71
2022/12/26 07:45:44;;;;;;;2.33;1.40;;;12.00;99.90;;;;;;4956807;28;20046;-72
2022/12/26 07:48:10;;;;;;;5.35;1.38;;;11.90;99.90;;;;;;4937474;29;20065;-71
2022/12/26 07:50:35;;;;;;;5.20;1.45;;;11.80;99.90;;;;;;4935175;29;20036;-71
2022/12/26 07:53:01;;;;;;;3.08;1.38;;;11.90;99.90;;;;;;4939058;28;20035;-71
2022/12/26 07:55:27;;;;;;;4.88;1.40;;;11.90;99.90;;;;;;4940587;29;20483;-70
2022/12/26 07:57:53;;;;;;;1.88;1.20;;;11.90;99.90;;;;;;4943945;29;20050;-70
2022/12/26 08:00:19;;;;;;;3.25;0.88;;;11.90;99.90;;;;;;4933034;29;20062;-70
2022/12/26 08:02:49;;;;;;;2.28;1.10;;;12.00;99.90;;;;;;4938571;29;20053;-70
2022/12/26 08:05:16;;;;;;;2.70;0.93;;;11.90;99.90;;;;;;4934349;29;20044;-70
2022/12/26 08:07:42;;;;;;;5.63;1.25;;;11.90;99.90;;;;;;4941400;29;20082;-70
2022/12/26 08:10:08;;;;;;;1.98;1.20;;;11.80;99.90;;;;;;4940783;29;20063;-70
2022/12/26 08:12:34;;;;;;;2.58;1.20;;;11.80;99.90;;;;;;4931289;29;20085;-72
2022/12/26 08:15:00;;;;;;;1.60;0.82;;;11.80;99.90;;;;;;4939081;28;20036;-74
2022/12/26 08:17:25;;;;;;;1.33;0.80;;;11.80;99.90;;;;;;4928282;29;20383;-79
2022/12/26 08:19:51;;;;;;;5.03;1.52;;;11.70;99.90;;;;;;4925105;29;20067;-77
2022/12/26 08:22:17;;;;;;;2.13;1.33;;;11.60;99.90;;;;;;4927851;29;20038;-76
2022/12/26 08:24:43;;;;;;;3.55;1.10;;;11.60;99.90;;;;;;4926383;29;20063;-77
2022/12/26 08:27:10;;;;;;;2.88;1.52;;;11.50;99.90;;;;;;4930554;29;20103;-73
2022/12/26 08:29:35;;;;;;;4.70;1.92;;;11.50;99.90;;;;;;4930451;29;20035;-79
2022/12/26 08:32:01;;;;;;;3.75;1.10;;;11.50;99.90;;;;;;4930509;29;20027;-75
2022/12/26 08:34:32;;;;;;;2.58;1.38;;;11.40;99.90;;;;;;4946222;29;20039;-71
2022/12/26 08:36:58;;;;;;;2.78;1.30;;;11.40;99.90;;;;;;4932285;28;20043;-75
2022/12/26 08:39:24;;;;;;;3.25;1.83;;;11.30;99.90;;;;;;4928053;29;20024;-73
2022/12/26 08:41:49;;;;;;;3.97;1.42;;;11.30;99.90;;;;;;4937955;29;20503;-73
2022/12/26 08:44:16;;;;;;;2.03;1.45;;;11.30;99.90;;;;;;4940738;29;20090;-72
2022/12/26 08:46:43;;;;;;;4.40;1.33;;;11.20;99.90;;;;;;4945908;29;20066;-72
2022/12/26 08:49:09;;;;;;;2.78;1.38;;;11.20;99.90;;;;;;4950235;29;20039;-71
2022/12/26 08:51:35;;;;;;;2.05;1.13;;;11.20;99.90;;;;;;4926861;28;20039;-72
2022/12/26 08:54:01;;;;;;;5.10;2.15;;;11.10;99.90;;;;;;4949188;28;20023;-72
2022/12/26 08:56:27;;;;;;;6.35;1.55;;;11.20;99.90;;;;;;4944364;29;20070;-72
2022/12/26 08:58:54;;;;;;;2.97;1.25;;;11.20;99.90;;;;;;4949072;28;20070;-72
2022/12/26 09:01:25;;;;;;;3.70;1.48;;;11.30;99.90;;;;;;4941089;29;20496;-73
2022/12/26 09:03:54;;;;;;;1.92;1.23;;;11.30;99.90;;;;;;4937443;29;20167;-72
2022/12/26 09:06:20;;;;;;;3.20;1.38;;;11.30;99.90;;;;;;4942849;28;20039;-72
2022/12/26 09:08:46;;;;;;;4.97;1.90;;;11.30;99.90;;;;;;4950058;29;20039;-72
2022/12/26 09:11:19;;;;;;;5.00;1.80;;;11.20;99.90;;;;;;4943098;29;20039;-72
2022/12/26 09:13:46;;;;;;;4.18;2.65;;;11.20;99.90;;;;;;4949164;28;20063;-73
2022/12/26 09:16:22;;;;;;;2.60;1.52;;;11.10;99.90;;;;;;4941642;28;20031;-73
2022/12/26 09:18:54;;;;;;;2.25;1.35;;;11.20;99.90;;;;;;4950227;28;20175;-71
2022/12/26 09:21:20;;;;;;;4.38;2.05;;;11.10;99.90;;;;;;4953515;28;20070;-72
2022/12/26 09:23:46;;;;;;;2.25;1.25;;;11.20;99.90;;;;;;4934664;29;20507;-72
2022/12/26 09:26:18;;;;;;;2.25;1.23;;;11.20;99.90;;;;;;4948320;29;20097;-71
2022/12/26 09:28:45;;;;;;;2.45;1.30;;;11.30;99.90;;;;;;4930772;29;20043;-71
2022/12/26 09:31:24;;;;;;;2.55;1.40;;;11.30;99.90;;;;;;4918932;29;20033;-71
2022/12/26 09:33:51;;;;;;;12.23;1.35;;;11.30;99.90;;;;;;4921975;29;20059;-71
2022/12/26 09:36:20;;;;;;;2.83;1.48;;;11.40;99.90;;;;;;4939483;29;20509;-73
2022/12/26 09:38:47;;;;;;;2.90;1.45;;;11.40;99.90;;;;;;4940120;28;20066;-74
2022/12/26 09:42:07;;;;;;;4.38;1.70;;;11.30;99.90;;;;;;4934217;29;20495;-68
2022/12/26 09:45:08;;;;;;;2.17;1.13;;;11.40;99.90;;;;;;4905769;29;20132;-71
2022/12/26 09:48:10;;;;;;;1.65;1.08;;;11.40;99.90;;;;;;4909277;29;20127;-70
2022/12/26 09:50:38;;;;;;;9.48;1.90;;;11.40;99.90;;;;;;4937670;29;20074;-70
2022/12/26 09:53:37;;;;;;;3.50;1.42;;;11.40;99.90;;;;;;4931259;29;20036;-70
2022/12/26 09:56:10;;;;;;;2.83;1.05;;;11.40;99.90;;;;;;4949959;28;20070;-72
2022/12/26 09:58:52;;;;;;;3.10;1.77;;;11.40;99.90;;;;;;4941733;29;20035;-72
2022/12/26 10:01:23;;;;;;;4.38;1.38;;;11.50;99.90;;;;;;4956249;28;20221;-71
2022/12/26 10:03:55;;;;;;;1.48;1.02;;;11.50;99.90;;;;;;4943356;28;20031;-71
2022/12/26 10:06:47;;;;;;;1.60;1.15;;;11.60;99.90;;;;;;4943833;28;20087;-71
2022/12/26 10:09:44;;;;;;;;;;;11.50;99.90;;;;;;4948125;29;20518;-70
2022/12/26 10:12:42;;;;;;;3.22;1.33;;;11.50;99.90;;;;;;4899192;29;1041083;-70
2022/12/26 10:15:31;;;;;;;2.05;1.42;;;11.50;99.90;;;;;;4946108;28;20035;-71
2022/12/26 10:18:35;;;;;;;5.57;1.23;;;11.40;99.90;;;;;;4950856;28;20035;-70
2022/12/26 10:21:32;;;;;;;1.33;0.77;;;11.40;99.90;;;;;;4933669;29;20044;-71
2022/12/26 10:24:14;;;;;;;1.80;0.85;;;11.40;99.90;;;;;;4942524;29;20044;-68
2022/12/26 10:26:48;;;;;;;1.30;0.95;;;11.50;99.90;;;;;;4916145;29;20424;-69
2022/12/26 10:29:26;;;;;;;0.35;0.30;;;11.50;99.90;;;;;;4939480;29;20028;-67
2022/12/26 10:31:58;;;;;;;1.25;0.95;;;11.60;99.90;;;;;;4933216;29;20042;-68
2022/12/26 10:34:38;;;;;;;1.35;0.88;;;11.50;99.90;;;;;;4935977;29;20023;-68
2022/12/26 10:37:26;;;;;;;2.67;0.98;;;11.50;99.90;;;;;;4937763;29;20027;-68
2022/12/26 10:40:22;;;;;;;2.58;0.90;;;11.40;99.90;;;;;;4936263;29;20023;-70
2022/12/26 10:42:56;;;;;;;2.03;1.08;;;11.40;99.90;;;;;;4936109;29;20517;-68
2022/12/26 10:45:40;;;;;;;1.75;1.10;;;11.40;99.90;;;;;;4945709;29;20042;-68
2022/12/26 10:48:07;;;;;;;2.13;0.80;;;11.50;99.90;;;;;;4949458;29;20031;-69
2022/12/26 10:50:34;;;;;;;2.08;0.68;;;11.60;99.90;;;;;;4945318;28;20040;-69
2022/12/26 10:53:04;;;;;;;0.80;0.60;;;11.60;99.90;;;;;;4950526;28;20078;-69
2022/12/26 10:55:32;;;;;;;2.35;0.77;;;11.60;99.90;;;;;;4945195;29;20038;-69
2022/12/26 10:58:38;;;;;;;2.38;0.90;;;11.60;99.90;;;;;;4948863;29;20070;-69
2022/12/26 11:01:36;;;;;;;1.52;0.90;;;11.70;99.90;;;;;;4939813;29;20033;-69
2022/12/26 11:04:17;;;;;;;1.02;0.63;;;11.70;99.90;;;;;;4939019;29;20039;-69
2022/12/26 11:06:44;;;;;;;0.52;0.45;;;11.70;99.90;;;;;;4943211;29;20294;-69
2022/12/26 11:09:39;;;;;;;1.67;0.93;;;11.70;99.90;;;;;;4949114;28;20082;-69
2022/12/26 11:12:21;;;;;;;1.52;0.93;;;11.70;99.90;;;;;;4938696;29;20043;-69
2022/12/26 11:14:47;;;;;;;1.30;0.70;;;11.80;99.90;;;;;;4933736;29;20031;-69
2022/12/26 11:17:35;;;;;;;3.60;1.00;;;11.80;99.90;;;;;;4942174;29;20035;-69
2022/12/26 11:20:15;;;;;;;2.67;0.95;;;11.80;99.90;;;;;;4943183;29;20036;-69
2022/12/26 11:22:43;;;;;;;2.47;0.90;;;11.90;99.90;;;;;;4937360;28;20066;-70
2022/12/26 11:25:08;;;;;;;1.50;0.73;;;11.90;99.90;;;;;;4941450;28;20074;-68
2022/12/26 11:27:40;;;;;;;1.02;0.52;;;11.90;99.90;;;;;;4941961;29;20039;-69
2022/12/26 11:30:30;;;;;;;1.63;0.85;;;11.90;99.90;;;;;;4943883;28;20387;-69
2022/12/26 11:33:11;;;;;;;1.67;0.77;;;11.90;99.90;;;;;;4958553;28;20058;-68
2022/12/26 11:35:53;;;;;;;2.22;1.10;;;11.90;99.90;;;;;;4942421;29;20452;-68
2022/12/26 11:38:33;;;;;;;1.30;0.60;;;11.90;99.90;;;;;;4927135;29;20067;-69
2022/12/26 11:43:48;;;;;;;1.85;0.90;;;11.80;99.90;;;;;;4927120;29;20087;-69
2022/12/26 11:46:14;;;;;;;0.68;0.55;;;11.90;99.90;;;;;;4933336;29;20051;-69
2022/12/26 11:48:40;;;;;;;0.95;0.70;;;11.90;99.90;;;;;;4944352;28;20026;-69
2022/12/26 11:51:08;;;;;;;1.42;0.50;;;11.80;99.90;;;;;;4945158;29;20102;-69
2022/12/26 11:53:33;;;;;;;1.75;0.98;;;11.80;99.90;;;;;;4944013;28;20086;-68
2022/12/26 11:56:05;;;;;;;1.67;0.90;;;11.90;99.90;;;;;;4943190;29;20488;-69
2022/12/26 11:58:33;;;;;;;1.13;0.65;;;12.10;99.90;;;;;;4952888;29;20019;-69
2022/12/26 12:00:59;;;;;;;1.88;1.10;;;12.20;99.90;;;;;;4944289;28;20043;-69
2022/12/26 12:03:47;;;;;;;2.75;0.93;;;12.20;99.90;;;;;;4951973;28;20134;-69
2022/12/26 12:06:55;;;;;;;3.65;1.25;;;12.30;99.90;;;;;;4938307;29;20373;-72
2022/12/26 12:09:58;;;;;;;2.92;1.27;;;12.30;99.90;;;;;;4932087;29;20039;-69
2022/12/26 12:12:46;;;;;;;3.67;0.88;;;12.40;99.90;;;;;;4932856;29;20048;-70
2022/12/26 12:15:40;;;;;;;1.17;0.70;;;12.50;99.90;;;;;;4926326;29;20078;-68
2022/12/26 12:18:50;;;;;;;1.40;0.95;;;12.40;99.90;;;;;;4933441;29;20389;-67
2022/12/26 12:21:42;;;;;;;3.50;0.68;;;12.50;99.90;;;;;;4935812;29;20384;-68
2022/12/26 12:24:26;;;;;;;4.40;1.17;;;12.50;99.90;;;;;;4933757;29;20034;-69
2022/12/26 12:27:03;;;;;;;1.77;0.70;;;12.60;99.90;;;;;;4930036;29;20518;-69
2022/12/26 12:29:59;;;;;;;2.47;0.93;;;12.70;99.90;;;;;;4956005;28;20034;-69
2022/12/26 12:32:56;;;;;;;0.93;0.65;;;12.90;99.90;;;;;;4939119;29;20059;-69
2022/12/26 12:35:43;;;;;;;1.23;0.60;;;13.00;99.90;;;;;;4935625;28;20046;-70
2022/12/26 12:38:32;;;;;;;0.85;0.55;;;13.10;99.90;;;;;;4941106;29;20036;-70
2022/12/26 12:41:32;;;;;;;1.27;0.63;;;13.00;99.90;;;;;;4933122;29;20031;-69
2022/12/26 12:44:27;;;;;;;3.42;1.60;;;12.90;99.90;;;;;;4936781;29;20035;-70
2022/12/26 12:47:19;;;;;;;2.58;0.63;;;13.00;99.90;;;;;;4934512;29;20051;-70
2022/12/26 12:50:38;;;;;;;0.85;0.65;;;12.80;99.90;;;;;;4935257;29;20035;-70
2022/12/26 12:53:17;;;;;;;0.75;0.50;;;12.90;99.90;;;;;;4949821;28;20094;-69
2022/12/26 12:55:58;;;;;;;3.58;0.90;;;13.00;99.90;;;;;;4938909;28;20023;-70
2022/12/26 12:58:33;;;;;;;;;;;12.90;99.90;;;;;;4937450;29;20042;-70
2022/12/26 13:01:15;;;;;;;1.25;0.85;;;12.90;99.90;;;;;;4938204;29;19914;-73
2022/12/26 13:04:26;;;;;;;1.75;0.85;;;12.90;99.90;;;;;;4944287;28;20023;-72
2022/12/26 13:07:01;;;;;;;1.13;0.70;;;12.80;99.90;;;;;;4927944;29;20031;-69
2022/12/26 13:09:46;;;;;;;1.30;0.68;;;12.60;99.90;;;;;;4925657;29;20035;-68
2022/12/26 13:14:53;;;;;;;1.45;0.68;;;12.60;99.90;;;;;;4934908;29;20048;-77
2022/12/26 13:17:53;;;;;;;1.98;0.98;;;12.60;99.90;;;;;;4936280;29;20188;-76
2022/12/26 13:20:44;;;;;;;1.63;1.02;;;12.60;99.90;;;;;;4933568;29;20035;-76
2022/12/26 13:26:29;;;;;;;2.17;0.75;;;12.60;99.90;;;;;;4918574;29;20046;-73
2022/12/26 13:29:29;;;;;;;0.95;0.60;;;12.60;99.90;;;;;;4911757;29;20492;-76
2022/12/26 13:31:58;;;;;;;2.78;1.23;;;12.70;99.90;;;;;;4917786;29;20040;-76
2022/12/26 13:34:25;;;;;;;2.72;1.30;;;12.70;99.90;;;;;;4900385;29;20091;-80
2022/12/26 13:36:56;;;;;;;2.40;0.90;;;12.50;99.90;;;;;;4911069;29;20028;-76
2022/12/26 13:39:24;;;;;;;1.38;0.57;;;12.50;99.90;;;;;;4916066;29;20115;-76
2022/12/26 13:44:53;;;;;;;2.33;1.42;;;12.50;99.90;;;;;;4911403;29;20111;-73
2022/12/26 13:47:35;;;;;;;5.60;0.93;;;12.60;99.90;;;;;;4917164;29;20064;-75
2022/12/26 13:50:45;;;;;;;2.78;1.10;;;12.60;99.90;;;;;;4892983;29;20074;-74
2022/12/26 13:53:39;;;;;;;2.30;1.10;;;12.50;99.90;;;;;;4919066;29;20434;-73
2022/12/26 13:56:51;;;;;;;1.58;0.77;;;12.50;99.90;;;;;;4913413;29;20046;-73
2022/12/26 13:59:35;;;;;;;1.65;0.80;;;12.40;99.90;;;;;;4918163;29;20036;-74
2022/12/26 14:03:09;;;;;;;1.13;0.77;;;12.30;99.90;;;;;;4915422;29;20036;-74
2022/12/26 14:05:43;;;;;;;1.40;0.68;;;12.30;99.90;;;;;;4917729;29;20078;-73
2022/12/26 14:09:11;;;;;;;1.70;0.70;;;12.20;99.90;;;;;;4925103;29;20035;-73
2022/12/26 14:12:07;;;;;;;0.93;0.57;;;12.20;99.90;;;;;;4915810;29;20028;-73
2022/12/26 14:15:06;;;;;;;1.67;1.23;;;12.20;99.90;;;;;;4901493;29;20039;-74
2022/12/26 14:17:50;;;;;;;3.88;2.05;;;12.10;99.90;;;;;;4899058;29;20243;-73
2022/12/26 14:20:47;;;;;;;1.67;0.70;;;12.00;99.90;;;;;;4917295;29;20028;-75
2022/12/26 14:23:52;;;;;;;1.52;0.75;;;11.90;99.90;;;;;;4912377;29;20039;-72
2022/12/26 14:26:39;;;;;;;1.13;0.63;;;11.80;99.90;;;;;;4923624;29;20027;-73
2022/12/26 14:29:23;;;;;;;5.25;1.13;;;11.80;99.90;;;;;;4912996;29;20461;-76
2022/12/26 14:32:36;;;;;;;1.05;0.75;;;11.70;99.90;;;;;;4915772;29;20052;-74
2022/12/26 14:35:22;;;;;;;1.33;0.43;;;11.70;99.90;;;;;;4912313;29;20032;-76
2022/12/26 14:38:27;;;;;;;0.52;0.40;;;11.70;99.90;;;;;;4915132;29;20032;-77
2022/12/26 14:44:21;;;;;;;1.00;0.60;;;11.80;99.90;;;;;;4911259;29;20031;-79
2022/12/26 14:46:49;;;;;;;0.75;0.55;;;11.80;99.90;;;;;;4906665;29;20131;-76
2022/12/26 14:49:37;;;;;;;0.75;0.52;;;11.90;99.90;;;;;;4915072;29;20047;-82
2022/12/26 14:52:24;;;;;;;2.33;0.77;;;11.90;99.90;;;;;;4915987;29;20036;-79
2022/12/26 14:54:54;;;;;;;1.38;0.70;;;11.80;99.90;;;;;;4910292;29;20112;-78
2022/12/26 14:57:47;;;;;;;0.30;0.27;;;11.80;99.90;;;;;;4901307;29;20116;-79
2022/12/26 15:00:24;;;;;;;1.42;0.75;;;11.80;99.90;;;;;;4910437;29;20039;-79
2022/12/26 15:03:00;;;;;;;1.25;0.38;;;11.80;99.90;;;;;;4915704;29;20047;-77
2022/12/26 15:05:35;;;;;;;0.95;0.57;;;11.80;99.90;;;;;;4916294;29;20024;-75
2022/12/26 15:08:47;;;;;;;0.82;0.28;;;11.80;99.90;;;;;;4902016;29;20040;-73
2022/12/26 15:11:51;;;;;;;1.33;0.40;;;11.70;99.90;;;;;;4912132;29;20048;-77
2022/12/26 15:14:53;;;;;;;2.70;0.63;;;11.60;99.90;;;;;;4921083;29;20058;-75
2022/12/26 15:17:29;;;;;;;1.45;0.57;;;11.60;99.90;;;;;;4900638;29;20496;-74
2022/12/26 15:20:38;;;;;;;1.40;0.93;;;11.60;99.90;;;;;;4907296;29;20043;-75
2022/12/26 15:23:52;;;;;;;1.13;0.68;;;11.60;99.90;;;;;;4891565;29;20543;-76
2022/12/26 15:26:50;;;;;;;1.55;0.90;;;11.60;99.90;;;;;;4886094;29;20068;-75
2022/12/26 15:29:49;;;;;;;1.90;0.80;;;11.60;99.90;;;;;;4911861;29;20043;-74
2022/12/26 15:32:57;;;;;;;1.83;0.50;;;11.60;99.90;;;;;;4915331;29;20064;-75
2022/12/26 15:35:47;;;;;;;1.85;0.60;;;11.60;99.90;;;;;;4913465;29;20128;-76
2022/12/26 15:38:41;;;;;;;1.52;0.60;;;11.60;99.90;;;;;;4906332;29;20036;-81
2022/12/26 15:41:36;;;;;;;2.42;1.10;;;11.50;99.90;;;;;;4910490;29;20047;-79
2022/12/26 15:44:30;;;;;;;3.85;1.15;;;11.40;99.90;;;;;;4897480;29;20038;-77
2022/12/26 15:47:25;;;;;;;3.13;1.23;;;11.40;99.90;;;;;;4880255;29;20040;-77
2022/12/26 15:50:15;;;;;;;1.73;0.88;;;11.50;99.90;;;;;;4907228;29;20044;-80
2022/12/26 15:53:06;;;;;;;1.27;0.65;;;11.50;99.90;;;;;;4914669;29;20071;-77
2022/12/26 15:56:00;;;;;;;1.25;0.70;;;11.50;99.90;;;;;;4917204;29;20034;-77
2022/12/26 15:58:59;;;;;;;1.15;0.80;;;11.50;99.90;;;;;;4910445;29;20094;-79